sensor_id;sensor_type;location;lat;lon;timestamp;P1;durP1;ratioP1;P2;durP2;ratioP2
9968;SDS011;5025;48.890;9.278;2023-04-03T00:02:01;1.93;;;1.83;;
9968;SDS011;5025;48.890;9.278;2023-04-03T00:04:26;2.03;;;1.93;;
9968;SDS011;5025;48.890;9.278;2023-04-03T00:06:52;2.13;;;1.93;;
9968;SDS011;5025;48.890;9.278;2023-04-03T00:09:17;1.80;;;1.70;;
9968;SDS011;5025;48.890;9.278;2023-04-03T00:11:42;1.87;;;1.77;;
9968;SDS011;5025;48.890;9.278;2023-04-03T00:14:07;1.60;;;1.50;;
9968;SDS011;5025;48.890;9.278;2023-04-03T00:16:33;1.70;;;1.60;;
9968;SDS011;5025;48.890;9.278;2023-04-03T00:18:58;1.80;;;1.70;;
9968;SDS011;5025;48.890;9.278;2023-04-03T00:21:23;1.70;;;1.60;;
9968;SDS011;5025;48.890;9.278;2023-04-03T00:23:49;1.60;;;1.50;;
9968;SDS011;5025;48.890;9.278;2023-04-03T00:26:14;1.90;;;1.80;;
9968;SDS011;5025;48.890;9.278;2023-04-03T00:28:39;1.90;;;1.80;;
9968;SDS011;5025;48.890;9.278;2023-04-03T00:31:04;2.07;;;1.97;;
9968;SDS011;5025;48.890;9.278;2023-04-03T00:33:30;1.80;;;1.70;;
9968;SDS011;5025;48.890;9.278;2023-04-03T00:35:55;1.80;;;1.70;;
9968;SDS011;5025;48.890;9.278;2023-04-03T00:38:20;1.90;;;1.80;;
9968;SDS011;5025;48.890;9.278;2023-04-03T00:40:48;2.00;;;1.90;;
9968;SDS011;5025;48.890;9.278;2023-04-03T00:43:15;1.67;;;1.57;;
9968;SDS011;5025;48.890;9.278;2023-04-03T00:45:50;2.13;;;1.70;;
9968;SDS011;5025;48.890;9.278;2023-04-03T00:48:24;2.70;;;2.10;;
9968;SDS011;5025;48.890;9.278;2023-04-03T00:50:53;1.90;;;1.80;;
9968;SDS011;5025;48.890;9.278;2023-04-03T00:53:22;2.00;;;1.90;;
9968;SDS011;5025;48.890;9.278;2023-04-03T00:55:50;2.00;;;1.90;;
9968;SDS011;5025;48.890;9.278;2023-04-03T00:58:17;1.70;;;1.60;;
9968;SDS011;5025;48.890;9.278;2023-04-03T01:00:46;1.83;;;1.73;;
9968;SDS011;5025;48.890;9.278;2023-04-03T01:03:16;2.13;;;1.83;;
9968;SDS011;5025;48.890;9.278;2023-04-03T01:05:41;1.60;;;1.60;;
9968;SDS011;5025;48.890;9.278;2023-04-03T01:08:07;1.90;;;1.80;;
9968;SDS011;5025;48.890;9.278;2023-04-03T01:10:32;1.70;;;1.60;;
9968;SDS011;5025;48.890;9.278;2023-04-03T01:12:57;1.60;;;1.57;;
9968;SDS011;5025;48.890;9.278;2023-04-03T01:15:25;1.90;;;1.80;;
9968;SDS011;5025;48.890;9.278;2023-04-03T01:17:52;1.80;;;1.70;;
9968;SDS011;5025;48.890;9.278;2023-04-03T01:28:16;2.20;;;2.10;;
9968;SDS011;5025;48.890;9.278;2023-04-03T01:30:48;1.90;;;1.80;;
9968;SDS011;5025;48.890;9.278;2023-04-03T01:33:19;2.07;;;1.90;;
9968;SDS011;5025;48.890;9.278;2023-04-03T01:35:44;1.90;;;1.80;;
9968;SDS011;5025;48.890;9.278;2023-04-03T01:38:10;2.20;;;2.10;;
9968;SDS011;5025;48.890;9.278;2023-04-03T01:40:35;2.10;;;2.00;;
9968;SDS011;5025;48.890;9.278;2023-04-03T01:43:00;2.20;;;2.00;;
9968;SDS011;5025;48.890;9.278;2023-04-03T01:45:26;2.30;;;2.20;;
9968;SDS011;5025;48.890;9.278;2023-04-03T01:47:51;2.10;;;2.00;;
9968;SDS011;5025;48.890;9.278;2023-04-03T01:50:16;2.20;;;2.10;;
9968;SDS011;5025;48.890;9.278;2023-04-03T01:52:42;2.43;;;2.10;;
9968;SDS011;5025;48.890;9.278;2023-04-03T01:55:07;1.93;;;1.83;;
9968;SDS011;5025;48.890;9.278;2023-04-03T01:57:33;1.80;;;1.70;;
9968;SDS011;5025;48.890;9.278;2023-04-03T01:59:58;1.80;;;1.70;;
9968;SDS011;5025;48.890;9.278;2023-04-03T02:02:23;1.90;;;1.80;;
9968;SDS011;5025;48.890;9.278;2023-04-03T02:04:49;2.10;;;2.00;;
9968;SDS011;5025;48.890;9.278;2023-04-03T02:07:14;2.00;;;1.90;;
9968;SDS011;5025;48.890;9.278;2023-04-03T02:09:40;2.10;;;2.00;;
9968;SDS011;5025;48.890;9.278;2023-04-03T02:12:05;2.00;;;1.90;;
9968;SDS011;5025;48.890;9.278;2023-04-03T02:14:31;1.90;;;1.80;;
9968;SDS011;5025;48.890;9.278;2023-04-03T02:16:56;2.00;;;1.90;;
9968;SDS011;5025;48.890;9.278;2023-04-03T02:19:21;1.80;;;1.70;;
9968;SDS011;5025;48.890;9.278;2023-04-03T02:21:47;1.90;;;1.80;;
9968;SDS011;5025;48.890;9.278;2023-04-03T02:24:12;2.10;;;1.90;;
9968;SDS011;5025;48.890;9.278;2023-04-03T02:26:38;1.90;;;1.80;;
9968;SDS011;5025;48.890;9.278;2023-04-03T02:29:03;1.90;;;1.80;;
9968;SDS011;5025;48.890;9.278;2023-04-03T02:31:28;2.30;;;1.90;;
9968;SDS011;5025;48.890;9.278;2023-04-03T02:33:53;2.00;;;1.80;;
9968;SDS011;5025;48.890;9.278;2023-04-03T02:36:19;2.00;;;1.90;;
9968;SDS011;5025;48.890;9.278;2023-04-03T02:38:44;2.13;;;1.93;;
9968;SDS011;5025;48.890;9.278;2023-04-03T02:41:11;2.00;;;1.90;;
9968;SDS011;5025;48.890;9.278;2023-04-03T02:43:37;1.80;;;1.70;;
9968;SDS011;5025;48.890;9.278;2023-04-03T02:46:03;1.77;;;1.70;;
9968;SDS011;5025;48.890;9.278;2023-04-03T02:48:29;1.80;;;1.70;;
9968;SDS011;5025;48.890;9.278;2023-04-03T02:50:54;1.90;;;1.80;;
9968;SDS011;5025;48.890;9.278;2023-04-03T02:53:20;1.70;;;1.60;;
9968;SDS011;5025;48.890;9.278;2023-04-03T02:55:45;1.47;;;1.40;;
9968;SDS011;5025;48.890;9.278;2023-04-03T02:58:11;1.90;;;1.70;;
9968;SDS011;5025;48.890;9.278;2023-04-03T03:00:37;1.70;;;1.70;;
9968;SDS011;5025;48.890;9.278;2023-04-03T03:03:02;1.80;;;1.70;;
9968;SDS011;5025;48.890;9.278;2023-04-03T03:05:28;1.50;;;1.50;;
9968;SDS011;5025;48.890;9.278;2023-04-03T03:07:54;1.60;;;1.60;;
9968;SDS011;5025;48.890;9.278;2023-04-03T03:10:19;1.70;;;1.60;;
9968;SDS011;5025;48.890;9.278;2023-04-03T03:12:45;1.67;;;1.57;;
9968;SDS011;5025;48.890;9.278;2023-04-03T03:15:10;1.77;;;1.67;;
9968;SDS011;5025;48.890;9.278;2023-04-03T03:17:35;1.63;;;1.60;;
9968;SDS011;5025;48.890;9.278;2023-04-03T03:20:01;1.73;;;1.60;;
9968;SDS011;5025;48.890;9.278;2023-04-03T03:22:27;1.60;;;1.50;;
9968;SDS011;5025;48.890;9.278;2023-04-03T03:24:53;1.70;;;1.60;;
9968;SDS011;5025;48.890;9.278;2023-04-03T03:27:19;1.63;;;1.53;;
9968;SDS011;5025;48.890;9.278;2023-04-03T03:29:45;1.90;;;1.80;;
9968;SDS011;5025;48.890;9.278;2023-04-03T03:32:10;1.70;;;1.60;;
9968;SDS011;5025;48.890;9.278;2023-04-03T03:34:35;1.80;;;1.70;;
9968;SDS011;5025;48.890;9.278;2023-04-03T03:37:00;2.00;;;1.90;;
9968;SDS011;5025;48.890;9.278;2023-04-03T03:39:26;1.67;;;1.67;;
9968;SDS011;5025;48.890;9.278;2023-04-03T03:41:51;1.93;;;1.83;;
9968;SDS011;5025;48.890;9.278;2023-04-03T03:44:18;1.80;;;1.70;;
9968;SDS011;5025;48.890;9.278;2023-04-03T03:46:44;2.23;;;1.90;;
9968;SDS011;5025;48.890;9.278;2023-04-03T03:49:10;1.50;;;1.50;;
9968;SDS011;5025;48.890;9.278;2023-04-03T03:51:36;1.73;;;1.63;;
9968;SDS011;5025;48.890;9.278;2023-04-03T03:54:02;1.70;;;1.60;;
9968;SDS011;5025;48.890;9.278;2023-04-03T03:56:28;1.70;;;1.60;;
9968;SDS011;5025;48.890;9.278;2023-04-03T03:58:53;1.90;;;1.80;;
9968;SDS011;5025;48.890;9.278;2023-04-03T04:01:18;1.67;;;1.60;;
9968;SDS011;5025;48.890;9.278;2023-04-03T04:03:44;1.70;;;1.60;;
9968;SDS011;5025;48.890;9.278;2023-04-03T04:06:09;1.83;;;1.73;;
9968;SDS011;5025;48.890;9.278;2023-04-03T04:08:34;1.80;;;1.60;;
9968;SDS011;5025;48.890;9.278;2023-04-03T04:11:00;1.90;;;1.80;;
9968;SDS011;5025;48.890;9.278;2023-04-03T04:13:25;2.07;;;1.90;;
9968;SDS011;5025;48.890;9.278;2023-04-03T04:15:51;1.80;;;1.70;;
9968;SDS011;5025;48.890;9.278;2023-04-03T04:18:16;1.60;;;1.60;;
9968;SDS011;5025;48.890;9.278;2023-04-03T04:20:44;2.00;;;1.90;;
9968;SDS011;5025;48.890;9.278;2023-04-03T04:23:10;1.90;;;1.70;;
9968;SDS011;5025;48.890;9.278;2023-04-03T04:25:35;1.70;;;1.60;;
9968;SDS011;5025;48.890;9.278;2023-04-03T04:28:00;1.70;;;1.60;;
9968;SDS011;5025;48.890;9.278;2023-04-03T04:30:26;1.70;;;1.60;;
9968;SDS011;5025;48.890;9.278;2023-04-03T04:32:52;1.90;;;1.80;;
9968;SDS011;5025;48.890;9.278;2023-04-03T04:35:17;1.80;;;1.70;;
9968;SDS011;5025;48.890;9.278;2023-04-03T04:37:43;1.70;;;1.70;;
9968;SDS011;5025;48.890;9.278;2023-04-03T04:40:08;1.63;;;1.60;;
9968;SDS011;5025;48.890;9.278;2023-04-03T04:42:34;1.70;;;1.60;;
9968;SDS011;5025;48.890;9.278;2023-04-03T04:44:59;2.00;;;1.90;;
9968;SDS011;5025;48.890;9.278;2023-04-03T04:47:25;1.83;;;1.73;;
9968;SDS011;5025;48.890;9.278;2023-04-03T04:49:50;1.93;;;1.70;;
9968;SDS011;5025;48.890;9.278;2023-04-03T04:52:16;1.70;;;1.60;;
9968;SDS011;5025;48.890;9.278;2023-04-03T04:54:41;1.60;;;1.50;;
9968;SDS011;5025;48.890;9.278;2023-04-03T04:57:06;1.57;;;1.47;;
9968;SDS011;5025;48.890;9.278;2023-04-03T04:59:32;1.47;;;1.47;;
9968;SDS011;5025;48.890;9.278;2023-04-03T05:01:57;2.40;;;1.83;;
9968;SDS011;5025;48.890;9.278;2023-04-03T05:04:23;1.90;;;1.80;;
9968;SDS011;5025;48.890;9.278;2023-04-03T05:06:48;1.90;;;1.60;;
9968;SDS011;5025;48.890;9.278;2023-04-03T05:09:13;1.67;;;1.57;;
9968;SDS011;5025;48.890;9.278;2023-04-03T05:11:39;1.63;;;1.60;;
9968;SDS011;5025;48.890;9.278;2023-04-03T05:14:04;2.00;;;1.90;;
9968;SDS011;5025;48.890;9.278;2023-04-03T05:16:31;1.93;;;1.83;;
9968;SDS011;5025;48.890;9.278;2023-04-03T05:18:57;1.77;;;1.67;;
9968;SDS011;5025;48.890;9.278;2023-04-03T05:21:22;1.70;;;1.60;;
9968;SDS011;5025;48.890;9.278;2023-04-03T05:23:50;1.77;;;1.67;;
9968;SDS011;5025;48.890;9.278;2023-04-03T05:26:16;1.87;;;1.77;;
9968;SDS011;5025;48.890;9.278;2023-04-03T05:28:41;1.80;;;1.70;;
9968;SDS011;5025;48.890;9.278;2023-04-03T05:31:07;2.03;;;1.93;;
9968;SDS011;5025;48.890;9.278;2023-04-03T05:33:32;1.60;;;1.50;;
9968;SDS011;5025;48.890;9.278;2023-04-03T05:36:01;1.90;;;1.80;;
9968;SDS011;5025;48.890;9.278;2023-04-03T05:38:28;1.83;;;1.73;;
9968;SDS011;5025;48.890;9.278;2023-04-03T05:40:53;1.70;;;1.60;;
9968;SDS011;5025;48.890;9.278;2023-04-03T05:43:19;1.90;;;1.80;;
9968;SDS011;5025;48.890;9.278;2023-04-03T05:45:44;1.73;;;1.63;;
9968;SDS011;5025;48.890;9.278;2023-04-03T05:48:10;1.60;;;1.57;;
9968;SDS011;5025;48.890;9.278;2023-04-03T05:50:35;2.13;;;1.93;;
9968;SDS011;5025;48.890;9.278;2023-04-03T05:53:01;1.70;;;1.60;;
9968;SDS011;5025;48.890;9.278;2023-04-03T05:55:27;2.23;;;2.13;;
9968;SDS011;5025;48.890;9.278;2023-04-03T05:57:52;1.90;;;1.80;;
9968;SDS011;5025;48.890;9.278;2023-04-03T06:00:18;1.80;;;1.70;;
9968;SDS011;5025;48.890;9.278;2023-04-03T06:02:43;1.70;;;1.60;;
9968;SDS011;5025;48.890;9.278;2023-04-03T06:05:09;1.93;;;1.83;;
9968;SDS011;5025;48.890;9.278;2023-04-03T06:07:36;2.40;;;2.20;;
9968;SDS011;5025;48.890;9.278;2023-04-03T06:10:02;2.90;;;2.70;;
9968;SDS011;5025;48.890;9.278;2023-04-03T06:12:28;3.63;;;3.33;;
9968;SDS011;5025;48.890;9.278;2023-04-03T06:14:56;4.47;;;4.03;;
9968;SDS011;5025;48.890;9.278;2023-04-03T06:17:22;4.70;;;4.30;;
9968;SDS011;5025;48.890;9.278;2023-04-03T06:19:47;4.20;;;3.80;;
9968;SDS011;5025;48.890;9.278;2023-04-03T06:22:13;3.30;;;3.10;;
9968;SDS011;5025;48.890;9.278;2023-04-03T06:24:41;3.10;;;2.90;;
9968;SDS011;5025;48.890;9.278;2023-04-03T06:27:07;2.87;;;2.67;;
9968;SDS011;5025;48.890;9.278;2023-04-03T06:29:33;4.17;;;3.77;;
9968;SDS011;5025;48.890;9.278;2023-04-03T06:31:58;5.20;;;4.70;;
9968;SDS011;5025;48.890;9.278;2023-04-03T06:34:23;6.60;;;5.90;;
9968;SDS011;5025;48.890;9.278;2023-04-03T06:36:49;6.10;;;5.50;;
9968;SDS011;5025;48.890;9.278;2023-04-03T06:39:16;5.20;;;4.70;;
9968;SDS011;5025;48.890;9.278;2023-04-03T06:41:46;4.57;;;4.17;;
9968;SDS011;5025;48.890;9.278;2023-04-03T06:44:11;3.67;;;3.30;;
9968;SDS011;5025;48.890;9.278;2023-04-03T06:46:38;2.97;;;2.73;;
9968;SDS011;5025;48.890;9.278;2023-04-03T06:49:04;2.93;;;2.73;;
9968;SDS011;5025;48.890;9.278;2023-04-03T06:51:29;2.90;;;2.63;;
9968;SDS011;5025;48.890;9.278;2023-04-03T06:53:56;2.73;;;2.40;;
9968;SDS011;5025;48.890;9.278;2023-04-03T06:56:23;2.83;;;2.00;;
9968;SDS011;5025;48.890;9.278;2023-04-03T06:58:50;2.10;;;2.00;;
9968;SDS011;5025;48.890;9.278;2023-04-03T07:01:16;1.90;;;1.80;;
9968;SDS011;5025;48.890;9.278;2023-04-03T07:03:44;1.90;;;1.80;;
9968;SDS011;5025;48.890;9.278;2023-04-03T07:06:11;1.80;;;1.70;;
9968;SDS011;5025;48.890;9.278;2023-04-03T07:08:38;2.10;;;2.00;;
9968;SDS011;5025;48.890;9.278;2023-04-03T07:11:04;2.67;;;2.23;;
9968;SDS011;5025;48.890;9.278;2023-04-03T07:13:30;2.73;;;1.73;;
9968;SDS011;5025;48.890;9.278;2023-04-03T07:15:56;2.37;;;1.97;;
9968;SDS011;5025;48.890;9.278;2023-04-03T07:18:21;2.03;;;1.90;;
9968;SDS011;5025;48.890;9.278;2023-04-03T07:20:47;2.10;;;2.00;;
9968;SDS011;5025;48.890;9.278;2023-04-03T07:23:12;2.13;;;1.93;;
9968;SDS011;5025;48.890;9.278;2023-04-03T07:25:42;1.80;;;1.70;;
9968;SDS011;5025;48.890;9.278;2023-04-03T07:28:11;1.90;;;1.80;;
9968;SDS011;5025;48.890;9.278;2023-04-03T07:30:46;2.10;;;1.90;;
9968;SDS011;5025;48.890;9.278;2023-04-03T07:33:14;3.00;;;2.00;;
9968;SDS011;5025;48.890;9.278;2023-04-03T07:35:41;4.00;;;1.97;;
9968;SDS011;5025;48.890;9.278;2023-04-03T07:38:07;2.10;;;2.00;;
9968;SDS011;5025;48.890;9.278;2023-04-03T07:40:33;2.50;;;2.30;;
9968;SDS011;5025;48.890;9.278;2023-04-03T07:42:59;2.20;;;2.00;;
9968;SDS011;5025;48.890;9.278;2023-04-03T07:45:25;2.50;;;2.10;;
9968;SDS011;5025;48.890;9.278;2023-04-03T07:47:51;2.60;;;2.13;;
9968;SDS011;5025;48.890;9.278;2023-04-03T07:50:17;2.90;;;2.50;;
9968;SDS011;5025;48.890;9.278;2023-04-03T07:52:43;5.63;;;3.43;;
9968;SDS011;5025;48.890;9.278;2023-04-03T07:55:09;5.23;;;4.57;;
9968;SDS011;5025;48.890;9.278;2023-04-03T07:57:35;11.00;;;7.70;;
9968;SDS011;5025;48.890;9.278;2023-04-03T08:00:01;8.87;;;7.60;;
9968;SDS011;5025;48.890;9.278;2023-04-03T08:02:27;6.83;;;5.27;;
9968;SDS011;5025;48.890;9.278;2023-04-03T08:04:52;4.77;;;4.10;;
9968;SDS011;5025;48.890;9.278;2023-04-03T08:07:18;3.43;;;3.03;;
9968;SDS011;5025;48.890;9.278;2023-04-03T08:09:43;2.43;;;2.33;;
9968;SDS011;5025;48.890;9.278;2023-04-03T08:12:09;3.27;;;2.30;;
9968;SDS011;5025;48.890;9.278;2023-04-03T08:14:36;2.43;;;2.20;;
9968;SDS011;5025;48.890;9.278;2023-04-03T08:17:01;2.10;;;2.00;;
9968;SDS011;5025;48.890;9.278;2023-04-03T08:19:29;2.27;;;2.00;;
9968;SDS011;5025;48.890;9.278;2023-04-03T08:21:54;2.13;;;2.00;;
9968;SDS011;5025;48.890;9.278;2023-04-03T08:24:20;2.37;;;2.10;;
9968;SDS011;5025;48.890;9.278;2023-04-03T08:26:45;2.40;;;2.20;;
9968;SDS011;5025;48.890;9.278;2023-04-03T08:29:10;1.90;;;1.80;;
9968;SDS011;5025;48.890;9.278;2023-04-03T08:31:36;2.40;;;2.20;;
9968;SDS011;5025;48.890;9.278;2023-04-03T08:34:01;2.60;;;2.40;;
9968;SDS011;5025;48.890;9.278;2023-04-03T08:36:27;3.57;;;2.50;;
9968;SDS011;5025;48.890;9.278;2023-04-03T08:38:54;2.30;;;2.10;;
9968;SDS011;5025;48.890;9.278;2023-04-03T08:44:07;2.03;;;1.90;;
9968;SDS011;5025;48.890;9.278;2023-04-03T08:46:42;2.13;;;1.93;;
9968;SDS011;5025;48.890;9.278;2023-04-03T08:50:04;2.13;;;1.80;;
9968;SDS011;5025;48.890;9.278;2023-04-03T08:52:58;1.87;;;1.77;;
9968;SDS011;5025;48.890;9.278;2023-04-03T08:57:47;1.90;;;1.80;;
9968;SDS011;5025;48.890;9.278;2023-04-03T09:00:17;1.87;;;1.77;;
9968;SDS011;5025;48.890;9.278;2023-04-03T09:05:12;2.37;;;2.00;;
9968;SDS011;5025;48.890;9.278;2023-04-03T09:07:55;2.73;;;1.90;;
9968;SDS011;5025;48.890;9.278;2023-04-03T09:10:28;2.30;;;2.10;;
9968;SDS011;5025;48.890;9.278;2023-04-03T09:15:59;2.47;;;2.07;;
9968;SDS011;5025;48.890;9.278;2023-04-03T09:18:28;1.63;;;1.53;;
9968;SDS011;5025;48.890;9.278;2023-04-03T09:23:46;2.07;;;1.80;;
9968;SDS011;5025;48.890;9.278;2023-04-03T09:26:25;1.70;;;1.60;;
9968;SDS011;5025;48.890;9.278;2023-04-03T09:28:56;2.20;;;1.97;;
9968;SDS011;5025;48.890;9.278;2023-04-03T09:31:39;2.07;;;1.70;;
9968;SDS011;5025;48.890;9.278;2023-04-03T09:34:20;2.17;;;1.87;;
9968;SDS011;5025;48.890;9.278;2023-04-03T09:36:48;1.70;;;1.60;;
9968;SDS011;5025;48.890;9.278;2023-04-03T09:39:23;1.73;;;1.63;;
9968;SDS011;5025;48.890;9.278;2023-04-03T09:44:23;2.30;;;1.73;;
9968;SDS011;5025;48.890;9.278;2023-04-03T09:46:51;1.70;;;1.60;;
9968;SDS011;5025;48.890;9.278;2023-04-03T09:49:16;1.50;;;1.40;;
9968;SDS011;5025;48.890;9.278;2023-04-03T09:51:43;1.73;;;1.60;;
9968;SDS011;5025;48.890;9.278;2023-04-03T09:57:11;1.93;;;1.70;;
9968;SDS011;5025;48.890;9.278;2023-04-03T09:59:57;2.00;;;1.80;;
9968;SDS011;5025;48.890;9.278;2023-04-03T10:05:05;2.03;;;1.80;;
9968;SDS011;5025;48.890;9.278;2023-04-03T10:07:51;1.50;;;1.40;;
9968;SDS011;5025;48.890;9.278;2023-04-03T10:10:20;2.10;;;1.70;;
9968;SDS011;5025;48.890;9.278;2023-04-03T10:12:48;2.13;;;1.80;;
9968;SDS011;5025;48.890;9.278;2023-04-03T10:15:28;1.83;;;1.70;;
9968;SDS011;5025;48.890;9.278;2023-04-03T10:18:00;1.43;;;1.10;;
9968;SDS011;5025;48.890;9.278;2023-04-03T10:26:12;1.80;;;1.70;;
9968;SDS011;5025;48.890;9.278;2023-04-03T10:28:51;1.80;;;1.70;;
9968;SDS011;5025;48.890;9.278;2023-04-03T10:34:33;1.70;;;1.60;;
9968;SDS011;5025;48.890;9.278;2023-04-03T10:42:50;2.90;;;1.57;;
9968;SDS011;5025;48.890;9.278;2023-04-03T10:56:10;1.10;;;1.10;;
9968;SDS011;5025;48.890;9.278;2023-04-03T11:01:33;1.40;;;1.30;;
9968;SDS011;5025;48.890;9.278;2023-04-03T11:04:03;1.33;;;1.23;;
9968;SDS011;5025;48.890;9.278;2023-04-03T11:06:35;1.33;;;1.23;;
9968;SDS011;5025;48.890;9.278;2023-04-03T11:09:27;1.60;;;1.50;;
9968;SDS011;5025;48.890;9.278;2023-04-03T11:11:56;1.40;;;1.30;;
9968;SDS011;5025;48.890;9.278;2023-04-03T11:14:32;1.40;;;1.30;;
9968;SDS011;5025;48.890;9.278;2023-04-03T11:22:45;1.87;;;1.70;;
9968;SDS011;5025;48.890;9.278;2023-04-03T11:25:22;1.50;;;1.40;;
9968;SDS011;5025;48.890;9.278;2023-04-03T11:27:56;1.23;;;1.17;;
9968;SDS011;5025;48.890;9.278;2023-04-03T11:36:12;1.70;;;1.57;;
9968;SDS011;5025;48.890;9.278;2023-04-03T11:38:44;1.10;;;1.10;;
9968;SDS011;5025;48.890;9.278;2023-04-03T11:41:12;1.67;;;1.57;;
9968;SDS011;5025;48.890;9.278;2023-04-03T11:44:01;1.40;;;1.30;;
9968;SDS011;5025;48.890;9.278;2023-04-03T11:46:48;1.50;;;1.40;;
9968;SDS011;5025;48.890;9.278;2023-04-03T11:55:35;1.63;;;1.53;;
9968;SDS011;5025;48.890;9.278;2023-04-03T12:16:22;1.30;;;1.30;;
9968;SDS011;5025;48.890;9.278;2023-04-03T12:26:43;1.67;;;1.30;;
9968;SDS011;5025;48.890;9.278;2023-04-03T12:37:39;1.40;;;1.30;;
9968;SDS011;5025;48.890;9.278;2023-04-03T12:43:12;1.60;;;1.50;;
9968;SDS011;5025;48.890;9.278;2023-04-03T12:48:54;1.13;;;1.13;;
9968;SDS011;5025;48.890;9.278;2023-04-03T12:51:27;1.60;;;1.50;;
9968;SDS011;5025;48.890;9.278;2023-04-03T12:54:01;2.17;;;1.57;;
9968;SDS011;5025;48.890;9.278;2023-04-03T12:56:34;1.73;;;1.63;;
9968;SDS011;5025;48.890;9.278;2023-04-03T12:59:22;1.50;;;1.40;;
9968;SDS011;5025;48.890;9.278;2023-04-03T13:01:55;1.43;;;1.33;;
9968;SDS011;5025;48.890;9.278;2023-04-03T13:04:20;1.40;;;1.30;;
9968;SDS011;5025;48.890;9.278;2023-04-03T13:06:46;1.50;;;1.27;;
9968;SDS011;5025;48.890;9.278;2023-04-03T13:09:18;2.27;;;1.53;;
9968;SDS011;5025;48.890;9.278;2023-04-03T13:11:52;1.40;;;1.30;;
9968;SDS011;5025;48.890;9.278;2023-04-03T13:14:25;1.10;;;1.10;;
9968;SDS011;5025;48.890;9.278;2023-04-03T13:17:12;1.73;;;1.63;;
9968;SDS011;5025;48.890;9.278;2023-04-03T13:19:40;3.20;;;1.50;;
9968;SDS011;5025;48.890;9.278;2023-04-03T13:22:52;1.53;;;1.43;;
9968;SDS011;5025;48.890;9.278;2023-04-03T13:24:58;1.63;;;1.50;;
9968;SDS011;5025;48.890;9.278;2023-04-03T13:27:29;2.50;;;1.47;;
9968;SDS011;5025;48.890;9.278;2023-04-03T13:29:57;1.73;;;1.53;;
9968;SDS011;5025;48.890;9.278;2023-04-03T13:32:25;1.50;;;1.40;;
9968;SDS011;5025;48.890;9.278;2023-04-03T13:34:53;1.33;;;1.27;;
9968;SDS011;5025;48.890;9.278;2023-04-03T13:37:26;1.50;;;1.40;;
9968;SDS011;5025;48.890;9.278;2023-04-03T13:40:00;1.60;;;1.50;;
9968;SDS011;5025;48.890;9.278;2023-04-03T13:42:36;1.67;;;1.40;;
9968;SDS011;5025;48.890;9.278;2023-04-03T13:45:08;1.73;;;1.40;;
9968;SDS011;5025;48.890;9.278;2023-04-03T13:47:40;1.30;;;1.30;;
9968;SDS011;5025;48.890;9.278;2023-04-03T13:52:46;1.73;;;1.60;;
9968;SDS011;5025;48.890;9.278;2023-04-03T13:55:22;1.87;;;1.70;;
9968;SDS011;5025;48.890;9.278;2023-04-03T13:57:58;1.70;;;1.60;;
9968;SDS011;5025;48.890;9.278;2023-04-03T14:00:48;1.70;;;1.50;;
9968;SDS011;5025;48.890;9.278;2023-04-03T14:03:32;1.33;;;1.30;;
9968;SDS011;5025;48.890;9.278;2023-04-03T14:05:58;1.33;;;1.23;;
9968;SDS011;5025;48.890;9.278;2023-04-03T14:08:26;1.30;;;1.20;;
9968;SDS011;5025;48.890;9.278;2023-04-03T14:10:52;1.53;;;1.40;;
9968;SDS011;5025;48.890;9.278;2023-04-03T14:13:19;1.30;;;1.30;;
9968;SDS011;5025;48.890;9.278;2023-04-03T14:15:45;2.10;;;1.10;;
9968;SDS011;5025;48.890;9.278;2023-04-03T14:18:14;1.20;;;1.20;;
9968;SDS011;5025;48.890;9.278;2023-04-03T14:20:41;1.40;;;1.30;;
9968;SDS011;5025;48.890;9.278;2023-04-03T14:23:08;1.63;;;1.30;;
9968;SDS011;5025;48.890;9.278;2023-04-03T14:25:34;1.60;;;1.50;;
9968;SDS011;5025;48.890;9.278;2023-04-03T14:28:00;1.40;;;1.30;;
9968;SDS011;5025;48.890;9.278;2023-04-03T14:30:28;1.40;;;1.30;;
9968;SDS011;5025;48.890;9.278;2023-04-03T14:32:56;1.10;;;1.00;;
9968;SDS011;5025;48.890;9.278;2023-04-03T14:35:23;1.50;;;1.40;;
9968;SDS011;5025;48.890;9.278;2023-04-03T14:37:49;1.27;;;1.20;;
9968;SDS011;5025;48.890;9.278;2023-04-03T14:40:18;1.50;;;1.40;;
9968;SDS011;5025;48.890;9.278;2023-04-03T14:42:45;1.30;;;1.30;;
9968;SDS011;5025;48.890;9.278;2023-04-03T14:45:13;1.77;;;1.40;;
9968;SDS011;5025;48.890;9.278;2023-04-03T14:47:51;1.57;;;1.47;;
9968;SDS011;5025;48.890;9.278;2023-04-03T14:50:25;2.03;;;1.60;;
9968;SDS011;5025;48.890;9.278;2023-04-03T14:52:52;2.03;;;1.50;;
9968;SDS011;5025;48.890;9.278;2023-04-03T14:55:20;1.63;;;1.47;;
9968;SDS011;5025;48.890;9.278;2023-04-03T14:57:47;1.60;;;1.50;;
9968;SDS011;5025;48.890;9.278;2023-04-03T15:00:17;1.60;;;1.50;;
9968;SDS011;5025;48.890;9.278;2023-04-03T15:02:44;1.40;;;1.30;;
9968;SDS011;5025;48.890;9.278;2023-04-03T15:05:10;2.00;;;1.83;;
9968;SDS011;5025;48.890;9.278;2023-04-03T15:07:41;1.77;;;1.50;;
9968;SDS011;5025;48.890;9.278;2023-04-03T15:12:39;2.37;;;1.67;;
9968;SDS011;5025;48.890;9.278;2023-04-03T15:15:04;1.80;;;1.70;;
9968;SDS011;5025;48.890;9.278;2023-04-03T15:17:30;1.37;;;1.27;;
9968;SDS011;5025;48.890;9.278;2023-04-03T15:19:56;1.50;;;1.40;;
9968;SDS011;5025;48.890;9.278;2023-04-03T15:22:23;1.97;;;1.77;;
9968;SDS011;5025;48.890;9.278;2023-04-03T15:24:48;2.07;;;1.70;;
9968;SDS011;5025;48.890;9.278;2023-04-03T15:27:13;1.70;;;1.50;;
9968;SDS011;5025;48.890;9.278;2023-04-03T15:29:40;1.57;;;1.47;;
9968;SDS011;5025;48.890;9.278;2023-04-03T15:32:06;1.83;;;1.40;;
9968;SDS011;5025;48.890;9.278;2023-04-03T15:34:34;1.90;;;1.70;;
9968;SDS011;5025;48.890;9.278;2023-04-03T15:37:00;1.83;;;1.60;;
9968;SDS011;5025;48.890;9.278;2023-04-03T15:39:25;1.60;;;1.50;;
9968;SDS011;5025;48.890;9.278;2023-04-03T15:41:51;1.80;;;1.57;;
9968;SDS011;5025;48.890;9.278;2023-04-03T15:44:17;1.77;;;1.67;;
9968;SDS011;5025;48.890;9.278;2023-04-03T15:46:43;1.23;;;1.23;;
9968;SDS011;5025;48.890;9.278;2023-04-03T15:49:09;1.43;;;1.33;;
9968;SDS011;5025;48.890;9.278;2023-04-03T15:51:35;1.57;;;1.47;;
9968;SDS011;5025;48.890;9.278;2023-04-03T15:54:01;1.10;;;1.10;;
9968;SDS011;5025;48.890;9.278;2023-04-03T15:56:26;1.53;;;1.43;;
9968;SDS011;5025;48.890;9.278;2023-04-03T15:58:51;1.77;;;1.60;;
9968;SDS011;5025;48.890;9.278;2023-04-03T16:01:17;1.30;;;1.30;;
9968;SDS011;5025;48.890;9.278;2023-04-03T16:03:42;1.60;;;1.50;;
9968;SDS011;5025;48.890;9.278;2023-04-03T16:06:11;1.87;;;1.50;;
9968;SDS011;5025;48.890;9.278;2023-04-03T16:08:37;1.80;;;1.70;;
9968;SDS011;5025;48.890;9.278;2023-04-03T16:11:03;2.20;;;1.67;;
9968;SDS011;5025;48.890;9.278;2023-04-03T16:13:28;1.30;;;1.30;;
9968;SDS011;5025;48.890;9.278;2023-04-03T16:15:54;1.60;;;1.50;;
9968;SDS011;5025;48.890;9.278;2023-04-03T16:18:19;2.30;;;1.70;;
9968;SDS011;5025;48.890;9.278;2023-04-03T16:20:45;1.60;;;1.50;;
9968;SDS011;5025;48.890;9.278;2023-04-03T16:23:10;1.80;;;1.70;;
9968;SDS011;5025;48.890;9.278;2023-04-03T16:25:36;1.57;;;1.47;;
9968;SDS011;5025;48.890;9.278;2023-04-03T16:28:01;1.80;;;1.63;;
9968;SDS011;5025;48.890;9.278;2023-04-03T16:30:27;1.97;;;1.50;;
9968;SDS011;5025;48.890;9.278;2023-04-03T16:32:52;1.57;;;1.47;;
9968;SDS011;5025;48.890;9.278;2023-04-03T16:35:18;1.50;;;1.40;;
9968;SDS011;5025;48.890;9.278;2023-04-03T16:37:43;1.50;;;1.40;;
9968;SDS011;5025;48.890;9.278;2023-04-03T16:40:09;1.37;;;1.27;;
9968;SDS011;5025;48.890;9.278;2023-04-03T16:42:35;1.40;;;1.30;;
9968;SDS011;5025;48.890;9.278;2023-04-03T16:45:00;1.53;;;1.43;;
9968;SDS011;5025;48.890;9.278;2023-04-03T16:47:28;1.27;;;1.20;;
9968;SDS011;5025;48.890;9.278;2023-04-03T16:49:54;1.70;;;1.40;;
9968;SDS011;5025;48.890;9.278;2023-04-03T16:52:19;1.30;;;1.30;;
9968;SDS011;5025;48.890;9.278;2023-04-03T16:54:44;1.50;;;1.40;;
9968;SDS011;5025;48.890;9.278;2023-04-03T16:57:10;1.50;;;1.40;;
9968;SDS011;5025;48.890;9.278;2023-04-03T16:59:35;1.50;;;1.40;;
9968;SDS011;5025;48.890;9.278;2023-04-03T17:02:00;1.50;;;1.40;;
9968;SDS011;5025;48.890;9.278;2023-04-03T17:04:26;1.80;;;1.70;;
9968;SDS011;5025;48.890;9.278;2023-04-03T17:06:51;1.50;;;1.40;;
9968;SDS011;5025;48.890;9.278;2023-04-03T17:09:16;1.60;;;1.50;;
9968;SDS011;5025;48.890;9.278;2023-04-03T17:11:42;1.47;;;1.37;;
9968;SDS011;5025;48.890;9.278;2023-04-03T17:14:07;1.60;;;1.50;;
9968;SDS011;5025;48.890;9.278;2023-04-03T17:16:33;1.43;;;1.30;;
9968;SDS011;5025;48.890;9.278;2023-04-03T17:19:00;1.80;;;1.53;;
9968;SDS011;5025;48.890;9.278;2023-04-03T17:21:28;1.53;;;1.43;;